Time;durP1;ratioP1;P1;durP2;ratioP2;P2;SDS_P1;SDS_P2;PMS_P1;PMS_P2;Temp;Humidity;BMP_temperature;BMP_pressure;BME280_temperature;BME280_humidity;BME280_pressure;Samples;Min_cycle;Max_cycle;Signal;HPM_P1;HPM_P2
2022/05/15 00:01:53;;;;;;;4.65;2.55;;;;;;;14.44;90.98;100249.31;4951999;29;20034;-68
2022/05/15 00:04:18;;;;;;;3.58;2.08;;;;;;;14.51;90.59;100248.13;4950027;29;20321;-68
2022/05/15 00:06:44;;;;;;;4.65;2.33;;;;;;;14.36;90.71;100228.25;4953232;28;20604;-68
2022/05/15 00:09:09;;;;;;;4.40;2.63;;;;;;;14.41;91.14;100236.09;4970074;28;20607;-68
2022/05/15 00:11:35;;;;;;;6.30;2.75;;;;;;;14.29;91.11;100244.66;4970191;28;20025;-68
2022/05/15 00:14:02;;;;;;;5.63;2.50;;;;;;;14.27;91.80;100251.88;4972479;28;20033;-68
2022/05/15 00:16:29;;;;;;;5.13;2.95;;;;;;;14.34;91.33;100234.63;4967594;28;20023;-68
2022/05/15 00:18:54;;;;;;;7.47;3.00;;;;;;;14.30;91.75;100223.19;4953396;29;20019;-68
2022/05/15 00:21:20;;;;;;;5.07;2.72;;;;;;;14.37;91.32;100235.34;4953839;29;20543;-68
2022/05/15 00:23:45;;;;;;;5.22;2.80;;;;;;;14.42;92.22;100232.47;4953550;29;20069;-68
2022/05/15 00:26:12;;;;;;;4.93;2.80;;;;;;;14.49;91.91;100233.94;4953637;28;20169;-68
2022/05/15 00:28:37;;;;;;;5.22;2.45;;;;;;;14.48;92.13;100221.47;4953647;29;20027;-68
2022/05/15 00:31:04;;;;;;;5.03;3.10;;;;;;;14.44;92.78;100222.56;4953768;29;20403;-68
2022/05/15 00:33:29;;;;;;;6.07;2.58;;;;;;;14.36;92.92;100224.72;4956711;28;20059;-68
2022/05/15 00:35:55;;;;;;;4.82;2.53;;;;;;;14.29;93.17;100220.56;4990158;28;20569;-69
2022/05/15 00:38:21;;;;;;;7.00;2.63;;;;;;;14.24;93.43;100218.06;4976754;28;20470;-69
2022/05/15 00:40:48;;;;;;;7.20;2.70;;;;;;;14.27;93.72;100222.44;4972583;28;20027;-69
2022/05/15 00:43:35;;;;;;;3.92;2.45;;;;;;;14.13;93.30;100224.81;4972016;28;20038;-69
2022/05/15 00:46:02;;;;;;;4.47;2.60;;;;;;;14.06;93.73;100220.69;4972488;28;20030;-69
2022/05/15 00:48:27;;;;;;;4.97;2.70;;;;;;;13.95;93.40;100214.94;4972644;28;20046;-69
2022/05/15 00:50:53;;;;;;;11.77;3.00;;;;;;;13.94;94.37;100223.88;4972473;28;20045;-72
2022/05/15 00:53:19;;;;;;;5.00;2.83;;;;;;;13.92;94.78;100221.25;4971636;28;20064;-69
2022/05/15 00:55:49;;;;;;;5.20;2.88;;;;;;;14.04;95.10;100225.22;4970944;28;20022;-68
2022/05/15 00:58:21;;;;;;;5.40;2.88;;;;;;;14.09;94.49;100223.22;4971393;28;20488;-68
2022/05/15 01:00:46;;;;;;;5.45;2.72;;;;;;;14.09;94.55;100217.84;4971297;28;20130;-69
2022/05/15 01:03:17;;;;;;;5.78;3.00;;;;;;;14.06;94.55;100228.69;4970918;28;20031;-69
2022/05/15 01:05:49;;;;;;;5.28;2.78;;;;;;;14.08;95.15;100222.38;4970632;28;20038;-69
2022/05/15 01:08:14;;;;;;;4.35;2.67;;;;;;;14.05;95.34;100221.63;4955805;28;20031;-69
2022/05/15 01:10:44;;;;;;;7.00;3.53;;;;;;;14.02;95.68;100219.09;4951624;29;20035;-69
2022/05/15 01:13:11;;;;;;;6.45;2.90;;;;;;;14.03;95.59;100210.13;4951552;29;20062;-69
2022/05/15 01:15:38;;;;;;;5.45;3.42;;;;;;;14.00;96.15;100212.94;4951631;29;20058;-69
2022/05/15 01:18:05;;;;;;;9.48;3.20;;;;;;;14.01;96.20;100230.69;4967959;28;20390;-69
2022/05/15 01:20:32;;;;;;;6.32;3.13;;;;;;;14.04;96.21;100227.88;4972304;28;20375;-69
2022/05/15 01:22:59;;;;;;;5.45;3.10;;;;;;;13.99;96.22;100229.88;4971799;28;20030;-69
2022/05/15 01:25:32;;;;;;;4.35;3.67;;;;;;;14.04;96.52;100235.91;4971706;28;20042;-69
2022/05/15 01:28:13;;;;;;;3.63;2.67;;;;;;;13.97;96.86;100229.97;4972223;28;20030;-69
2022/05/15 01:30:42;;;;;;;5.25;3.05;;;;;;;14.02;96.48;100235.13;4969673;28;20038;-69
2022/05/15 01:33:08;;;;;;;4.45;2.50;;;;;;;14.01;96.69;100236.94;4972031;28;20027;-69
2022/05/15 01:35:34;;;;;;;4.57;2.65;;;;;;;14.02;95.81;100232.47;4971969;28;20098;-69
2022/05/15 01:38:00;;;;;;;4.45;2.50;;;;;;;14.03;95.47;100229.72;4971830;28;20524;-69
2022/05/15 01:40:26;;;;;;;5.25;2.78;;;;;;;14.00;95.94;100237.00;4971701;28;20078;-69
2022/05/15 01:42:51;;;;;;;3.75;2.50;;;;;;;13.96;95.72;100230.03;4971776;28;20050;-68
2022/05/15 01:45:17;;;;;;;3.75;2.25;;;;;;;13.92;95.01;100231.13;4971660;28;20038;-68
2022/05/15 01:47:43;;;;;;;4.63;2.25;;;;;;;13.91;94.89;100229.34;4972113;28;20103;-68
2022/05/15 01:50:11;;;;;;;5.53;3.08;;;;;;;13.82;94.54;100214.56;4971673;28;20034;-68
2022/05/15 01:52:36;;;;;;;7.53;3.08;;;;;;;13.85;95.12;100232.28;4971741;28;20386;-68
2022/05/15 01:55:03;;;;;;;4.32;2.63;;;;;;;13.80;95.15;100231.63;4971584;28;20022;-68
2022/05/15 01:57:28;;;;;;;4.25;2.58;;;;;;;13.68;95.04;100210.75;4954310;28;20057;-68
2022/05/15 01:59:54;;;;;;;4.47;2.95;;;;;;;13.77;94.89;100215.72;4971758;28;20113;-68
2022/05/15 02:02:19;;;;;;;5.45;2.80;;;;;;;13.73;95.72;100230.13;4971912;28;20073;-68
2022/05/15 02:04:45;;;;;;;7.45;3.00;;;;;;;13.70;95.74;100217.78;4971632;28;20022;-68
2022/05/15 02:07:10;;;;;;;5.20;2.53;;;;;;;13.64;96.20;100223.34;4954335;28;20081;-68
2022/05/15 02:09:36;;;;;;;5.32;2.88;;;;;;;13.61;95.96;100230.63;4971802;28;20027;-68
2022/05/15 02:12:02;;;;;;;6.43;2.60;;;;;;;13.57;96.57;100232.59;4971439;28;20374;-68
2022/05/15 02:14:27;;;;;;;3.50;2.40;;;;;;;13.51;96.63;100223.97;4971898;28;20061;-68
2022/05/15 02:16:53;;;;;;;4.38;2.75;;;;;;;13.56;96.96;100221.97;4965729;28;20031;-68
2022/05/15 02:19:18;;;;;;;5.45;2.70;;;;;;;13.47;96.17;100206.28;4963703;28;20467;-68
2022/05/15 02:21:44;;;;;;;5.68;2.83;;;;;;;13.60;96.71;100218.22;4970547;28;20027;-68
2022/05/15 02:24:10;;;;;;;5.82;2.72;;;;;;;13.52;96.50;100215.00;4970245;28;20038;-68
2022/05/15 02:26:37;;;;;;;8.30;3.10;;;;;;;13.46;96.74;100207.25;4969879;28;20027;-68
2022/05/15 02:29:03;;;;;;;7.07;3.47;;;;;;;13.41;96.76;100209.22;4970361;28;20034;-68
2022/05/15 02:31:28;;;;;;;3.83;2.50;;;;;;;13.34;97.09;100207.72;4952552;28;20046;-68
2022/05/15 02:33:55;;;;;;;4.68;2.90;;;;;;;13.32;97.31;100213.13;4970033;28;20390;-68
2022/05/15 02:36:20;;;;;;;5.20;2.92;;;;;;;13.29;96.29;100197.25;4973760;28;20137;-68
2022/05/15 02:38:46;;;;;;;6.20;3.13;;;;;;;13.37;96.98;100219.16;4975113;28;20516;-68
2022/05/15 02:41:11;;;;;;;6.60;2.90;;;;;;;13.37;96.49;100207.59;4974808;28;20131;-68
2022/05/15 02:43:37;;;;;;;4.80;2.85;;;;;;;13.36;96.47;100205.88;4977886;28;20114;-68
2022/05/15 02:46:02;;;;;;;6.00;3.00;;;;;;;13.32;96.89;100202.44;4977199;28;20390;-68
2022/05/15 02:51:12;;;;;;;5.00;3.00;;;;;;;13.17;96.65;100208.41;4974795;28;20042;-68
2022/05/15 02:53:43;;;;;;;5.18;2.97;;;;;;;12.99;97.23;100206.44;4974644;28;20118;-68
2022/05/15 02:56:16;;;;;;;5.25;3.13;;;;;;;12.99;97.34;100214.44;4974649;28;20062;-68
2022/05/15 02:58:41;;;;;;;4.45;3.00;;;;;;;13.06;98.01;100224.84;4975153;28;20382;-68
2022/05/15 03:01:07;;;;;;;5.95;2.88;;;;;;;13.11;98.49;100222.03;4974442;28;20035;-68
2022/05/15 03:03:33;;;;;;;6.00;2.90;;;;;;;13.12;98.79;100226.41;4974522;28;20045;-68
2022/05/15 03:05:58;;;;;;;5.05;3.28;;;;;;;13.06;98.85;100218.66;4972536;28;20030;-68
2022/05/15 03:08:24;;;;;;;5.57;3.10;;;;;;;13.03;98.46;100227.63;4972651;28;20030;-68
2022/05/15 03:10:50;;;;;;;5.68;2.78;;;;;;;12.96;98.41;100228.78;4972468;28;20051;-67
2022/05/15 03:13:15;;;;;;;5.75;2.97;;;;;;;12.85;98.75;100212.31;4972683;28;20053;-67
2022/05/15 03:15:41;;;;;;;5.35;3.13;;;;;;;13.01;98.85;100234.00;4973130;28;20057;-67
2022/05/15 03:18:06;;;;;;;7.75;3.30;;;;;;;13.04;99.15;100223.19;4957289;28;20479;-67
2022/05/15 03:20:32;;;;;;;5.32;2.95;;;;;;;13.01;99.09;100221.47;4954321;29;20053;-67
2022/05/15 03:22:59;;;;;;;5.15;3.20;;;;;;;12.94;99.28;100230.66;4954787;29;20037;-67
2022/05/15 03:25:27;;;;;;;5.53;3.10;;;;;;;12.92;99.86;100235.19;4959140;28;20058;-67
2022/05/15 03:27:54;;;;;;;6.28;3.13;;;;;;;12.93;99.84;100228.88;4972876;28;20053;-67
2022/05/15 03:30:20;;;;;;;6.72;3.33;;;;;;;12.90;99.43;100226.34;4972234;28;20035;-67
2022/05/15 03:32:46;;;;;;;6.28;3.47;;;;;;;12.85;100.00;100228.31;4972101;28;20478;-67
2022/05/15 03:35:14;;;;;;;6.32;3.17;;;;;;;12.87;100.00;100237.16;4971900;28;20027;-67
2022/05/15 03:37:40;;;;;;;5.07;3.22;;;;;;;12.90;100.00;100231.69;4971315;28;20145;-67
2022/05/15 03:40:08;;;;;;;5.20;3.10;;;;;;;12.88;100.00;100228.19;4973128;28;20023;-67
2022/05/15 03:42:34;;;;;;;6.95;4.07;;;;;;;12.91;100.00;100227.22;4972284;28;20553;-67
2022/05/15 03:45:00;;;;;;;5.50;3.25;;;;;;;12.95;100.00;100223.50;4972697;28;20027;-67
2022/05/15 03:47:25;;;;;;;7.38;3.67;;;;;;;12.92;100.00;100219.16;4958372;28;20415;-67
2022/05/15 03:49:51;;;;;;;8.23;3.63;;;;;;;12.94;100.00;100217.31;4934344;29;20075;-67
2022/05/15 03:52:17;;;;;;;5.53;3.63;;;;;;;12.92;100.00;100208.47;4935132;29;20039;-67
2022/05/15 03:54:43;;;;;;;6.90;4.20;;;;;;;12.90;100.00;100213.00;4935265;29;20070;-67
2022/05/15 03:57:09;;;;;;;6.35;3.47;;;;;;;12.95;100.00;100205.69;4935156;29;20024;-67
2022/05/15 03:59:38;;;;;;;7.50;3.95;;;;;;;12.95;100.00;100195.00;4933955;29;20399;-67
2022/05/15 04:02:05;;;;;;;7.13;3.75;;;;;;;13.03;100.00;100208.94;4947870;29;20042;-67
2022/05/15 04:04:32;;;;;;;8.43;3.83;;;;;;;13.10;100.00;100202.44;4933081;29;20098;-67
2022/05/15 04:06:58;;;;;;;5.90;3.63;;;;;;;13.15;100.00;100199.59;4933068;29;20030;-67
2022/05/15 04:09:24;;;;;;;7.85;4.88;;;;;;;13.17;100.00;100203.94;4933004;29;20024;-67
2022/05/15 04:11:50;;;;;;;9.23;3.80;;;;;;;13.23;100.00;100212.66;4933009;29;20047;-67
2022/05/15 04:14:15;;;;;;;5.68;3.50;;;;;;;13.24;100.00;100209.91;4930671;29;20472;-67
2022/05/15 04:16:41;;;;;;;5.82;3.38;;;;;;;13.18;100.00;100216.34;4930434;29;20384;-67
2022/05/15 04:19:06;;;;;;;5.45;3.47;;;;;;;13.14;100.00;100220.09;4915650;29;20461;-67
2022/05/15 04:21:40;;;;;;;10.80;3.78;;;;;;;13.19;100.00;100220.75;4915810;29;20039;-67
2022/05/15 04:24:11;;;;;;;;;;;;;;;13.21;100.00;100226.06;4916419;29;20028;-67
2022/05/15 04:26:37;;;;;;;8.57;3.70;;;;;;;13.23;100.00;100219.72;4914870;29;19958;-67
2022/05/15 04:29:04;;;;;;;5.95;3.45;;;;;;;13.28;100.00;100211.50;4914842;29;20059;-67
2022/05/15 04:31:30;;;;;;;5.15;3.45;;;;;;;13.32;99.96;100212.25;4914809;29;20087;-67
2022/05/15 04:33:55;;;;;;;14.75;3.85;;;;;;;13.34;99.78;100221.97;4914838;29;20044;-67
2022/05/15 04:36:21;;;;;;;5.78;3.70;;;;;;;13.36;99.31;100219.22;4916907;29;20503;-67
2022/05/15 04:38:46;;;;;;;6.35;3.38;;;;;;;13.37;99.53;100227.19;4933034;29;20542;-67
2022/05/15 04:41:11;;;;;;;7.45;3.63;;;;;;;13.38;99.15;100222.72;4934148;29;20167;-67
2022/05/15 04:43:37;;;;;;;5.93;3.35;;;;;;;13.47;99.34;100227.66;4933838;29;20363;-67
2022/05/15 04:46:07;;;;;;;6.70;3.50;;;;;;;13.58;99.62;100226.28;4928765;29;20027;-67
2022/05/15 04:48:33;;;;;;;6.13;3.75;;;;;;;13.68;99.32;100229.44;4970120;28;20391;-67
2022/05/15 04:50:59;;;;;;;7.47;4.85;;;;;;;13.72;98.65;100220.38;4979286;28;20052;-67
2022/05/15 04:53:25;;;;;;;8.05;3.70;;;;;;;13.90;98.77;100230.28;4966913;28;20031;-67
2022/05/15 04:55:50;;;;;;;6.72;4.05;;;;;;;14.06;97.93;100239.41;4970905;28;20030;-67
2022/05/15 04:58:15;;;;;;;7.35;4.47;;;;;;;14.19;97.58;100235.25;4971771;28;20438;-67
2022/05/15 05:00:43;;;;;;;7.47;3.80;;;;;;;14.31;96.86;100226.72;4972588;28;20022;-67
2022/05/15 05:03:08;;;;;;;9.55;4.00;;;;;;;14.46;96.00;100229.56;4972449;28;20026;-67
2022/05/15 05:05:34;;;;;;;6.57;3.97;;;;;;;14.55;95.20;100224.78;4972314;28;20109;-67
2022/05/15 05:07:59;;;;;;;6.65;4.18;;;;;;;14.70;95.21;100235.63;4971997;28;20061;-67
2022/05/15 05:10:25;;;;;;;6.78;3.80;;;;;;;14.71;94.95;100229.31;4972477;28;20031;-67
2022/05/15 05:12:50;;;;;;;9.10;4.20;;;;;;;14.88;94.55;100231.22;4960409;28;20540;-67
2022/05/15 05:15:16;;;;;;;11.07;4.10;;;;;;;14.92;93.32;100227.47;4957599;28;20103;-67
2022/05/15 05:17:42;;;;;;;5.65;3.45;;;;;;;15.13;92.48;100231.81;4962052;28;20693;-67
2022/05/15 05:20:10;;;;;;;6.13;3.42;;;;;;;15.33;92.10;100239.78;4960858;28;20026;-67
2022/05/15 05:22:36;;;;;;;5.70;3.80;;;;;;;15.50;91.83;100238.03;4952827;29;20038;-67
2022/05/15 05:25:01;;;;;;;9.15;3.58;;;;;;;15.64;90.17;100238.25;4952591;29;20050;-67
2022/05/15 05:27:27;;;;;;;7.88;4.13;;;;;;;15.74;87.73;100239.53;4952276;29;20102;-67
2022/05/15 05:29:52;;;;;;;10.27;4.30;;;;;;;15.90;88.21;100236.06;4950985;29;20422;-67
2022/05/15 05:32:18;;;;;;;7.30;4.20;;;;;;;16.13;86.87;100250.03;4950831;29;20027;-67
2022/05/15 05:34:43;;;;;;;8.60;4.20;;;;;;;16.45;86.93;100243.00;4950925;29;20035;-67
2022/05/15 05:37:09;;;;;;;8.27;4.85;;;;;;;16.75;81.71;100241.38;4962728;28;20079;-67
2022/05/15 05:39:34;;;;;;;7.25;3.95;;;;;;;16.87;81.62;100238.91;4951029;29;20284;-67
2022/05/15 05:42:00;;;;;;;8.70;3.85;;;;;;;17.01;80.98;100251.59;4967686;28;20027;-67
2022/05/15 05:44:25;;;;;;;6.72;3.15;;;;;;;17.06;79.46;100249.50;4971291;28;20030;-67
2022/05/15 05:46:51;;;;;;;7.38;3.47;;;;;;;17.18;79.31;100246.16;4971699;28;20115;-67
2022/05/15 05:49:17;;;;;;;6.55;2.90;;;;;;;17.28;77.78;100244.66;4970180;28;20034;-67
2022/05/15 05:51:43;;;;;;;6.90;3.25;;;;;;;17.43;76.96;100241.09;4972224;28;20030;-68
2022/05/15 05:54:08;;;;;;;6.47;3.25;;;;;;;17.63;78.82;100240.88;4971818;28;20109;-68
2022/05/15 05:56:34;;;;;;;7.50;3.42;;;;;;;17.74;76.14;100254.56;4971980;28;20030;-68
2022/05/15 05:58:59;;;;;;;7.45;2.90;;;;;;;17.86;74.90;100250.28;4971745;28;20034;-67
2022/05/15 06:01:24;;;;;;;6.45;3.25;;;;;;;18.07;72.50;100247.19;4971874;28;20582;-67
2022/05/15 06:06:34;;;;;;;5.43;3.20;;;;;;;18.20;71.79;100245.50;4971869;28;20089;-68
2022/05/15 06:08:59;;;;;;;3.75;2.60;;;;;;;18.26;71.70;100242.47;4971846;28;20390;-68
2022/05/15 06:11:24;;;;;;;4.93;2.70;;;;;;;18.46;70.71;100253.88;4975077;28;20027;-68
2022/05/15 06:13:50;;;;;;;6.10;3.30;;;;;;;18.47;66.29;100250.25;4973952;28;20039;-68
2022/05/15 06:16:15;;;;;;;5.13;3.58;;;;;;;18.66;68.30;100256.22;4973175;28;20018;-68
2022/05/15 06:18:41;;;;;;;4.43;3.00;;;;;;;18.75;67.32;100251.13;4954669;29;20027;-68
2022/05/15 06:21:06;;;;;;;5.15;2.70;;;;;;;18.87;65.80;100250.38;4955818;29;20070;-68
2022/05/15 06:23:32;;;;;;;4.45;2.40;;;;;;;18.93;65.64;100246.44;4955946;29;20030;-68
2022/05/15 06:25:58;;;;;;;5.88;2.78;;;;;;;18.96;64.01;100252.47;4956085;29;20027;-67
2022/05/15 06:28:23;;;;;;;5.03;2.30;;;;;;;19.01;64.32;100253.03;4955873;29;20248;-68
2022/05/15 06:30:49;;;;;;;5.15;2.63;;;;;;;19.09;61.48;100242.63;4955813;29;20038;-68
2022/05/15 06:33:14;;;;;;;4.85;2.30;;;;;;;19.19;64.17;100242.94;4975785;28;20062;-68
2022/05/15 06:35:40;;;;;;;4.50;2.42;;;;;;;19.29;62.41;100241.41;4975418;28;20027;-67
2022/05/15 06:38:06;;;;;;;6.03;2.33;;;;;;;19.46;63.28;100249.25;4975092;28;20030;-67
2022/05/15 06:40:33;;;;;;;4.65;3.20;;;;;;;19.55;62.19;100245.97;4974986;28;20026;-68
2022/05/15 06:42:58;;;;;;;3.38;2.13;;;;;;;19.61;61.19;100243.75;4974798;28;20043;-68
2022/05/15 06:45:26;;;;;;;4.72;2.20;;;;;;;19.72;60.18;100243.00;4977335;28;20386;-68
2022/05/15 06:47:51;;;;;;;3.92;2.22;;;;;;;19.80;60.77;100232.59;4971622;28;20354;-68
2022/05/15 06:50:17;;;;;;;5.70;2.30;;;;;;;19.91;59.39;100246.22;4974589;28;20035;-68
2022/05/15 06:52:43;;;;;;;3.90;2.22;;;;;;;19.98;56.97;100244.88;4974911;28;20447;-68
2022/05/15 06:55:14;;;;;;;4.55;2.35;;;;;;;20.17;59.06;100245.38;4971553;28;20019;-68
2022/05/15 06:57:41;;;;;;;5.15;2.60;;;;;;;20.24;58.05;100244.00;4974808;28;20500;-68
2022/05/15 07:00:14;;;;;;;2.47;1.80;;;;;;;20.43;58.73;100246.25;4976925;28;20130;-68
2022/05/15 07:02:43;;;;;;;4.35;2.20;;;;;;;20.64;57.85;100248.34;4974828;28;20499;-68
2022/05/15 07:05:11;;;;;;;5.90;2.35;;;;;;;20.71;58.26;100249.66;4973098;28;20039;-68
2022/05/15 07:07:38;;;;;;;4.68;2.30;;;;;;;20.87;58.75;100236.78;4974568;28;20030;-68
2022/05/15 07:10:06;;;;;;;3.17;2.10;;;;;;;21.04;56.26;100229.34;4974394;28;20162;-68
2022/05/15 07:12:32;;;;;;;4.93;2.33;;;;;;;21.16;58.01;100252.78;4974512;28;20121;-68
2022/05/15 07:14:58;;;;;;;5.60;2.30;;;;;;;21.39;55.53;100243.84;4974446;28;20062;-68
2022/05/15 07:17:23;;;;;;;5.70;2.15;;;;;;;21.78;56.05;100240.94;4963989;28;20034;-68
2022/05/15 07:19:49;;;;;;;3.47;2.30;;;;;;;22.08;53.85;100230.50;4955214;29;20135;-68
2022/05/15 07:22:14;;;;;;;4.75;2.30;;;;;;;22.40;51.69;100234.31;4954088;28;20390;-68
2022/05/15 07:24:40;;;;;;;3.20;2.03;;;;;;;22.94;52.25;100231.84;4955029;29;20479;-68
2022/05/15 07:27:07;;;;;;;6.10;2.60;;;;;;;23.13;50.65;100216.66;4954847;29;20474;-67
2022/05/15 07:29:36;;;;;;;4.63;2.50;;;;;;;23.35;51.12;100237.53;4955139;29;20035;-68
2022/05/15 07:32:05;;;;;;;5.00;2.40;;;;;;;23.81;51.80;100240.91;4954700;29;20114;-68
2022/05/15 07:34:31;;;;;;;6.93;2.50;;;;;;;23.99;49.21;100238.53;4954951;29;20038;-68
2022/05/15 07:36:56;;;;;;;4.20;2.28;;;;;;;24.15;48.28;100234.38;4958531;28;20027;-67
2022/05/15 07:39:22;;;;;;;5.72;2.33;;;;;;;24.20;48.32;100234.84;4973841;28;20023;-67
2022/05/15 07:41:48;;;;;;;6.78;2.20;;;;;;;24.33;49.84;100235.53;4973376;28;20355;-67
2022/05/15 07:44:14;;;;;;;3.60;2.08;;;;;;;24.73;49.99;100219.38;4970662;28;20038;-67
2022/05/15 07:46:40;;;;;;;5.68;2.15;;;;;;;25.23;47.20;100233.94;4976918;28;20513;-67
2022/05/15 07:49:07;;;;;;;3.83;2.13;;;;;;;25.43;46.29;100231.22;4980360;28;20451;-67
2022/05/15 07:51:32;;;;;;;5.47;2.40;;;;;;;25.40;45.29;100225.16;4981096;28;20029;-67
2022/05/15 07:53:59;;;;;;;6.28;1.92;;;;;;;25.39;45.24;100218.84;4981228;28;20035;-67
2022/05/15 07:56:25;;;;;;;3.90;2.15;;;;;;;25.61;45.84;100224.09;4976710;28;20118;-67
2022/05/15 07:58:51;;;;;;;4.45;2.00;;;;;;;25.73;44.21;100233.84;4979394;28;20107;-67
2022/05/15 08:01:17;;;;;;;3.25;1.58;;;;;;;25.95;45.86;100225.44;4960812;28;20039;-67
2022/05/15 08:03:46;;;;;;;6.22;2.05;;;;;;;26.25;42.63;100229.03;4968519;28;20030;-67
2022/05/15 08:08:59;;;;;;;7.18;2.35;;;;;;;26.54;42.46;100219.00;4957100;28;20038;-66
2022/05/15 08:11:28;;;;;;;3.90;1.70;;;;;;;26.37;42.65;100227.91;4974403;28;20037;-66
2022/05/15 08:14:00;;;;;;;4.55;1.80;;;;;;;26.41;43.25;100224.72;4952679;29;20046;-66
2022/05/15 08:16:25;;;;;;;6.13;2.00;;;;;;;27.00;44.31;100221.78;4954699;28;20039;-66
2022/05/15 08:24:20;;;;;;;4.03;1.67;;;;;;;27.36;39.79;100218.22;4971557;28;20045;-66
2022/05/15 08:26:45;;;;;;;6.40;1.88;;;;;;;27.26;41.80;100221.94;4955401;28;20023;-66
2022/05/15 08:29:12;;;;;;;4.40;2.03;;;;;;;27.66;40.77;100226.06;4952359;29;20873;-66
2022/05/15 08:31:39;;;;;;;8.82;2.05;;;;;;;27.80;40.54;100221.97;4953755;28;20501;-66
2022/05/15 08:34:05;;;;;;;3.25;1.60;;;;;;;28.08;39.91;100219.06;4968866;28;20045;-66
2022/05/15 08:36:31;;;;;;;2.85;1.58;;;;;;;28.40;40.02;100218.50;4974526;28;20023;-66
2022/05/15 08:38:57;;;;;;;2.55;1.50;;;;;;;28.42;39.28;100214.56;4973782;28;20719;-66
2022/05/15 08:41:31;;;;;;;4.90;1.63;;;;;;;28.53;36.72;100215.38;4971420;28;20089;-66
2022/05/15 08:44:11;;;;;;;2.75;1.20;;;;;;;28.89;37.90;100211.53;4967889;28;20110;-66
2022/05/15 08:46:48;;;;;;;2.72;1.27;;;;;;;28.97;38.29;100211.56;4971001;28;20122;-66
2022/05/15 08:49:47;;;;;;;5.20;1.60;;;;;;;29.18;37.98;100187.41;4971197;28;20031;-66
2022/05/15 08:52:51;;;;;;;3.17;1.60;;;;;;;29.73;36.46;100204.28;4964934;28;20042;-66
2022/05/15 08:55:19;;;;;;;;;;;;;;;29.84;35.03;100207.56;4914543;28;20031;-66
2022/05/15 08:58:05;;;;;;;2.72;1.35;;;;;;;30.05;36.81;100207.94;4966162;28;19946;-66
2022/05/15 09:00:38;;;;;;;4.03;1.52;;;;;;;30.32;34.86;100206.78;4966685;28;20517;-66
2022/05/15 09:03:15;;;;;;;1.73;1.13;;;;;;;30.69;36.32;100205.22;4960652;28;20237;-67
2022/05/15 09:06:22;;;;;;;3.85;1.52;;;;;;;30.57;35.40;100203.91;4959761;28;20070;-67
2022/05/15 09:09:16;;;;;;;3.95;1.60;;;;;;;30.55;37.04;100205.94;4956421;28;20118;-67
2022/05/15 09:11:42;;;;;;;2.75;1.70;;;;;;;30.44;35.82;100198.06;4917920;29;20050;-67
2022/05/15 09:14:12;;;;;;;3.65;1.70;;;;;;;30.20;37.11;100206.25;4951039;29;20031;-67
2022/05/15 09:16:41;;;;;;;5.90;1.67;;;;;;;30.27;36.07;100196.34;4955408;28;20022;-67
2022/05/15 09:19:07;;;;;;;3.30;1.40;;;;;;;30.55;38.43;100192.22;4971026;28;20031;-67
2022/05/15 09:21:33;;;;;;;3.25;1.40;;;;;;;30.90;35.80;100196.50;4972099;28;20113;-67
2022/05/15 09:24:24;;;;;;;3.30;1.35;;;;;;;30.98;34.85;100201.97;4954964;28;20105;-67
2022/05/15 09:26:49;;;;;;;4.65;1.60;;;;;;;31.17;34.60;100196.06;4972529;28;20030;-68
2022/05/15 09:29:17;;;;;;;2.15;1.52;;;;;;;31.25;35.78;100200.69;4973136;28;20025;-67
2022/05/15 09:31:43;;;;;;;4.00;1.60;;;;;;;31.19;36.25;100191.25;4970955;28;20026;-67
2022/05/15 09:34:24;;;;;;;2.15;1.48;;;;;;;31.43;35.25;100193.09;4967169;28;20031;-67
2022/05/15 09:36:52;;;;;;;3.35;1.67;;;;;;;31.58;36.31;100194.03;4970299;28;20114;-67
2022/05/15 09:39:25;;;;;;;4.97;1.38;;;;;;;31.52;34.20;100192.00;4970989;28;20033;-67
2022/05/15 09:44:48;;;;;;;3.80;1.60;;;;;;;31.64;35.47;100187.81;4972719;28;20066;-67
2022/05/15 09:47:24;;;;;;;4.57;1.45;;;;;;;31.84;35.82;100180.81;4959762;28;20071;-67
2022/05/15 09:49:50;;;;;;;4.28;1.48;;;;;;;32.03;36.33;100177.63;4956640;29;20027;-67
2022/05/15 09:52:40;;;;;;;2.88;1.23;;;;;;;32.52;34.70;100173.44;4956534;29;20035;-67
2022/05/15 09:55:27;;;;;;;3.35;1.30;;;;;;;32.63;35.57;100170.25;4946419;29;20299;-67
2022/05/15 09:57:56;;;;;;;4.53;1.30;;;;;;;32.71;35.40;100163.81;4955448;29;20356;-67
2022/05/15 10:00:23;;;;;;;3.03;1.38;;;;;;;32.76;34.91;100156.69;4954910;29;20041;-67
2022/05/15 10:02:51;;;;;;;5.18;1.63;;;;;;;32.68;34.39;100154.03;4954764;29;20039;-67
2022/05/15 10:05:20;;;;;;;2.00;1.17;;;;;;;32.59;34.82;100157.03;4954627;29;20088;-67
2022/05/15 10:08:05;;;;;;;3.53;1.45;;;;;;;32.79;33.16;100148.03;4965428;28;20046;-67
2022/05/15 10:10:48;;;;;;;2.90;1.50;;;;;;;32.74;35.90;100149.66;4973986;28;20031;-67
2022/05/15 10:13:27;;;;;;;4.65;1.52;;;;;;;33.03;34.96;100133.16;4975446;28;20107;-67
2022/05/15 10:15:57;;;;;;;3.40;1.30;;;;;;;33.46;34.04;100128.69;4973934;28;20558;-68
2022/05/15 10:18:27;;;;;;;4.40;1.50;;;;;;;33.42;34.13;100139.25;4965955;28;20475;-67
2022/05/15 10:20:54;;;;;;;3.15;1.23;;;;;;;33.48;33.15;100132.09;4973777;28;20375;-67
2022/05/15 10:23:47;;;;;;;2.38;1.20;;;;;;;33.68;31.12;100139.56;4972431;28;20030;-67
2022/05/15 10:26:24;;;;;;;3.25;1.15;;;;;;;33.68;32.21;100133.16;4960138;28;20078;-67
2022/05/15 10:29:02;;;;;;;3.05;1.30;;;;;;;33.88;31.39;100117.69;4956363;28;20383;-67
2022/05/15 10:31:27;;;;;;;2.28;1.10;;;;;;;33.70;31.50;100120.03;4990662;28;20037;-67
2022/05/15 10:33:59;;;;;;;2.10;1.15;;;;;;;34.02;33.50;100117.66;4990750;28;20026;-67
2022/05/15 10:36:27;;;;;;;3.97;1.17;;;;;;;34.31;32.58;100113.88;4991088;28;20493;-68
2022/05/15 10:39:08;;;;;;;4.10;1.02;;;;;;;34.00;30.76;100105.09;4953204;29;20711;-68
2022/05/15 10:41:57;;;;;;;7.40;1.90;;;;;;;34.08;32.21;100099.44;4958169;28;20035;-68
2022/05/15 10:44:39;;;;;;;2.40;1.15;;;;;;;34.45;31.39;100115.72;4972865;28;20034;-68
2022/05/15 10:47:15;;;;;;;2.70;1.05;;;;;;;34.80;31.14;100106.41;4972882;28;20132;-68
2022/05/15 10:50:18;;;;;;;2.55;0.90;;;;;;;34.59;33.06;100095.44;4974229;28;20157;-68
2022/05/15 10:57:21;;;;;;;2.90;1.15;;;;;;;34.86;31.25;100094.53;4957146;28;20047;-68
2022/05/15 10:58:59;;;;;;;2.08;0.95;;;;;;;35.32;30.56;100087.34;4973599;28;20590;-68
2022/05/15 11:01:44;;;;;;;3.53;0.90;;;;;;;35.53;30.17;100087.28;4972277;28;20081;-68
2022/05/15 11:04:17;;;;;;;2.35;1.02;;;;;;;35.52;28.93;100081.94;4955896;28;20027;-67
2022/05/15 11:07:27;;;;;;;3.85;1.23;;;;;;;35.83;31.58;100073.91;4952845;28;20039;-67
2022/05/15 11:10:12;;;;;;;1.95;1.02;;;;;;;35.96;29.43;100073.97;4951967;28;20728;-67
2022/05/15 11:13:04;;;;;;;2.95;0.82;;;;;;;35.48;28.98;100070.44;4972835;28;20093;-67
2022/05/15 11:15:41;;;;;;;4.93;1.40;;;;;;;35.15;30.01;100072.19;4971528;28;20031;-67
2022/05/15 11:18:37;;;;;;;2.50;1.10;;;;;;;35.23;30.37;100058.19;4963026;28;20469;-67
2022/05/15 11:21:43;;;;;;;1.90;1.00;;;;;;;35.41;29.06;100064.00;4971754;28;20023;-67
2022/05/15 11:24:15;;;;;;;2.95;0.98;;;;;;;35.43;29.75;100061.91;4974003;28;20022;-67
2022/05/15 11:26:48;;;;;;;2.55;0.80;;;;;;;35.06;30.38;100065.13;4973349;28;20027;-67
2022/05/15 11:29:18;;;;;;;3.10;1.08;;;;;;;35.18;28.43;100055.19;4974090;28;20074;-66
2022/05/15 11:31:50;;;;;;;1.60;0.90;;;;;;;35.35;30.42;100053.75;4955854;28;20809;-66
2022/05/15 11:34:15;;;;;;;2.50;1.08;;;;;;;35.23;28.97;100046.25;4973313;28;20030;-67
2022/05/15 11:36:45;;;;;;;2.05;0.88;;;;;;;35.86;30.24;100047.75;4968727;28;20038;-66
2022/05/15 11:39:14;;;;;;;15.70;1.50;;;;;;;36.62;29.33;100047.09;4971012;28;20370;-67
2022/05/15 11:41:42;;;;;;;2.92;1.00;;;;;;;36.53;27.24;100037.28;4973653;28;20033;-67
2022/05/15 11:44:14;;;;;;;1.70;1.08;;;;;;;36.39;27.34;100030.94;4972913;28;20415;-67
2022/05/15 11:46:45;;;;;;;2.38;1.00;;;;;;;36.89;28.67;100027.41;4971703;28;20042;-67
2022/05/15 11:49:27;;;;;;;3.45;1.00;;;;;;;37.23;28.78;100034.53;4971841;28;20035;-67
2022/05/15 11:52:11;;;;;;;2.08;1.10;;;;;;;37.34;27.64;100030.22;4972810;28;20050;-67
2022/05/15 11:54:42;;;;;;;2.45;0.95;;;;;;;37.39;27.21;100027.66;4973446;28;20034;-67